Time;durP1;ratioP1;P1;durP2;ratioP2;P2;SDS_P1;SDS_P2;PMS_P1;PMS_P2;Temp;Humidity;BMP_temperature;BMP_pressure;BME280_temperature;BME280_humidity;BME280_pressure;Samples;Min_cycle;Max_cycle;Signal;HPM_P1;HPM_P2
2022/06/08 00:01:31;;;;;;;7.75;2.90;;;;;;;15.46;46.39;99171.47;5052184;28;20139;-75
2022/06/08 00:04:01;;;;;;;9.98;2.92;;;;;;;15.46;46.28;99171.47;5051516;28;20095;-70
2022/06/08 00:06:28;;;;;;;9.80;3.65;;;;;;;15.44;46.29;99179.44;5033973;28;20514;-74
2022/06/08 00:08:55;;;;;;;13.93;2.97;;;;;;;15.45;46.42;99175.44;5055263;28;20049;-70
2022/06/08 00:11:23;;;;;;;12.13;2.67;;;;;;;15.49;46.16;99170.72;5075365;28;20051;-70
2022/06/08 00:13:51;;;;;;;12.00;2.90;;;;;;;15.53;46.06;99173.56;5075423;28;20516;-70
2022/06/08 00:16:18;;;;;;;6.28;2.42;;;;;;;15.55;45.98;99169.22;5075769;28;20472;-70
2022/06/08 00:18:46;;;;;;;9.20;2.83;;;;;;;15.55;45.44;99169.22;5075437;28;20138;-69
2022/06/08 00:21:14;;;;;;;8.75;2.35;;;;;;;15.60;45.47;99168.88;5075297;28;20056;-70
2022/06/08 00:23:43;;;;;;;8.25;3.17;;;;;;;15.60;45.25;99166.06;5057717;28;20057;-68
2022/06/08 00:26:11;;;;;;;8.23;2.77;;;;;;;15.62;45.18;99166.53;5075303;28;20052;-70
2022/06/08 00:28:38;;;;;;;7.95;2.25;;;;;;;15.67;45.11;99171.81;5057719;28;20322;-70
2022/06/08 00:31:06;;;;;;;5.70;2.40;;;;;;;15.69;45.45;99168.66;5075212;28;20136;-69
2022/06/08 00:33:33;;;;;;;6.57;2.58;;;;;;;15.71;45.43;99172.69;5075442;28;20056;-69
2022/06/08 00:36:00;;;;;;;8.43;3.35;;;;;;;15.77;45.25;99167.56;5056913;28;20419;-69
2022/06/08 00:38:27;;;;;;;6.90;2.40;;;;;;;15.80;45.28;99170.44;5075128;28;20056;-69
2022/06/08 00:40:57;;;;;;;8.07;2.65;;;;;;;15.80;45.13;99167.63;5075011;28;20044;-70
2022/06/08 00:43:24;;;;;;;;;;;;;;;15.71;45.28;99169.06;5056250;28;20106;-70
2022/06/08 00:45:53;;;;;;;10.57;2.40;;;;;;;15.67;45.66;99154.19;5055210;28;19971;-71
2022/06/08 00:48:21;;;;;;;8.80;2.13;;;;;;;15.80;45.37;99164.00;5055088;28;20048;-74
2022/06/08 00:50:52;;;;;;;8.70;2.80;;;;;;;15.79;45.67;99168.00;5054837;28;20131;-75
2022/06/08 00:53:27;;;;;;;11.48;2.92;;;;;;;15.79;45.37;99157.59;5053666;28;20079;-70
2022/06/08 00:55:55;;;;;;;9.60;2.15;;;;;;;15.79;45.62;99157.59;5054731;28;20053;-73
2022/06/08 00:58:26;;;;;;;6.22;2.38;;;;;;;15.81;45.44;99163.63;5054582;28;20057;-70
2022/06/08 01:00:53;;;;;;;10.80;3.08;;;;;;;15.77;45.08;99159.97;5055241;28;20136;-75
2022/06/08 01:03:20;;;;;;;7.95;2.63;;;;;;;15.76;45.55;99154.72;5054874;28;20068;-70
2022/06/08 01:06:01;;;;;;;5.60;2.28;;;;;;;15.78;45.33;99157.97;5054609;28;20122;-74
2022/06/08 01:08:34;;;;;;;9.10;2.20;;;;;;;15.81;45.20;99160.03;5054208;28;20048;-70
2022/06/08 01:11:06;;;;;;;4.00;2.00;;;;;;;15.84;45.25;99165.66;5071363;28;20052;-70
2022/06/08 01:13:35;;;;;;;7.63;2.40;;;;;;;15.85;44.96;99163.69;5074574;28;20040;-70
2022/06/08 01:16:05;;;;;;;4.07;2.20;;;;;;;15.84;45.21;99160.06;5074207;28;20053;-70
2022/06/08 01:18:33;;;;;;;5.22;2.05;;;;;;;15.87;45.40;99164.13;5074014;28;20499;-69
2022/06/08 01:21:18;;;;;;;8.02;2.38;;;;;;;15.91;45.07;99164.97;5074412;28;20057;-70
2022/06/08 01:23:57;;;;;;;8.40;2.08;;;;;;;15.88;44.80;99160.94;5074140;28;20090;-70
2022/06/08 01:26:35;;;;;;;7.57;2.72;;;;;;;15.90;44.76;99157.75;5074229;28;20466;-70
2022/06/08 01:29:08;;;;;;;3.67;2.40;;;;;;;15.94;44.92;99170.66;5074446;28;20044;-80
2022/06/08 01:31:58;;;;;;;9.05;2.92;;;;;;;15.94;44.97;99169.84;5054526;28;20131;-76
2022/06/08 01:34:42;;;;;;;7.45;2.25;;;;;;;15.91;44.84;99173.41;5054414;28;20052;-70
2022/06/08 01:37:18;;;;;;;4.90;2.13;;;;;;;15.92;45.22;99169.41;5054001;28;20044;-69
2022/06/08 01:39:58;;;;;;;6.63;2.60;;;;;;;15.93;44.88;99169.03;5053865;28;20610;-71
2022/06/08 01:42:52;;;;;;;5.80;2.17;;;;;;;15.96;45.23;99175.91;5064456;28;20051;-70
2022/06/08 01:45:57;;;;;;;8.88;2.03;;;;;;;15.96;44.94;99176.69;5073728;28;20139;-70
2022/06/08 01:48:38;;;;;;;5.53;2.03;;;;;;;16.02;44.58;99172.38;4992194;28;20153;-70
2022/06/08 01:51:38;;;;;;;7.57;2.80;;;;;;;16.07;44.07;99180.47;4992522;28;20105;-74
2022/06/08 01:54:31;;;;;;;;;;;;;;;16.00;43.82;99185.16;5057579;28;20067;-70
2022/06/08 01:57:16;;;;;;;10.20;2.33;;;;;;;16.05;43.72;99177.22;5050361;28;19974;-70
2022/06/08 02:00:11;;;;;;;9.65;2.20;;;;;;;16.04;43.69;99181.22;5073464;28;20067;-75
2022/06/08 02:03:10;;;;;;;6.10;2.55;;;;;;;16.02;43.86;99177.97;5073667;28;20161;-71
2022/06/08 02:05:44;;;;;;;4.30;2.40;;;;;;;16.05;43.26;99182.84;5056855;28;20052;-70
2022/06/08 02:08:23;;;;;;;16.80;3.10;;;;;;;16.13;43.43;99184.56;5073029;28;20123;-74
2022/06/08 02:10:58;;;;;;;8.38;2.22;;;;;;;16.15;43.51;99182.22;5073609;28;20070;-69
2022/06/08 02:13:47;;;;;;;6.78;4.00;;;;;;;16.17;43.38;99182.63;5073203;28;20048;-70
2022/06/08 02:16:31;;;;;;;16.00;2.38;;;;;;;16.18;43.51;99189.88;5073581;28;20048;-71
2022/06/08 02:19:05;;;;;;;7.18;2.35;;;;;;;16.14;43.91;99186.19;5072990;28;20052;-71
2022/06/08 02:21:58;;;;;;;13.23;2.63;;;;;;;16.12;43.88;99193.38;5073431;28;20052;-75
2022/06/08 02:24:31;;;;;;;6.63;2.38;;;;;;;16.14;44.00;99191.00;5072770;28;20530;-71
2022/06/08 02:27:21;;;;;;;6.53;2.53;;;;;;;16.10;44.08;99190.94;5073172;28;20079;-75
2022/06/08 02:30:12;;;;;;;6.07;2.17;;;;;;;16.07;44.66;99191.69;5072505;28;20136;-70
2022/06/08 02:35:42;;;;;;;7.53;1.95;;;;;;;16.12;44.77;99197.00;5073018;28;20040;-74
2022/06/08 02:38:14;;;;;;;5.22;2.42;;;;;;;16.11;44.93;99192.56;5073060;28;20143;-75
2022/06/08 02:40:46;;;;;;;15.15;3.22;;;;;;;16.10;44.90;99198.53;5073091;28;20127;-70
2022/06/08 02:43:34;;;;;;;13.55;2.30;;;;;;;16.10;44.70;99195.72;5036714;28;20144;-70
2022/06/08 02:46:07;;;;;;;9.50;3.38;;;;;;;16.13;45.23;99200.59;5052600;28;20049;-71
2022/06/08 02:48:34;;;;;;;7.75;2.95;;;;;;;16.12;44.70;99198.97;5052753;28;20404;-71
2022/06/08 02:51:04;;;;;;;6.63;2.10;;;;;;;16.18;44.88;99197.47;5052743;28;20139;-70
2022/06/08 02:53:31;;;;;;;8.73;2.63;;;;;;;16.20;45.04;99195.91;5052877;28;20048;-70
2022/06/08 02:56:39;;;;;;;8.02;2.17;;;;;;;16.25;44.69;99198.38;5052768;28;20073;-70
2022/06/08 02:59:22;;;;;;;15.00;2.30;;;;;;;16.24;45.10;99195.97;5046903;28;20059;-74
2022/06/08 03:01:57;;;;;;;9.35;2.13;;;;;;;16.25;45.31;99206.00;5052868;28;20056;-75
2022/06/08 03:04:30;;;;;;;4.97;2.35;;;;;;;16.26;44.58;99200.00;5052200;28;20578;-76
2022/06/08 03:07:03;;;;;;;9.98;2.00;;;;;;;16.31;44.86;99204.47;5052859;28;20067;-75
2022/06/08 03:09:31;;;;;;;14.13;2.70;;;;;;;16.35;44.54;99214.56;5050454;28;20079;-75
2022/06/08 03:12:08;;;;;;;9.25;2.85;;;;;;;16.39;44.42;99212.63;5054426;28;20052;-70
2022/06/08 03:14:35;;;;;;;3.40;1.95;;;;;;;16.40;44.36;99207.81;5072520;28;20044;-73
2022/06/08 03:17:07;;;;;;;3.88;1.95;;;;;;;16.49;44.42;99213.19;5072538;28;20079;-71
2022/06/08 03:19:36;;;;;;;7.05;2.47;;;;;;;16.52;44.13;99213.22;5072247;28;20098;-74
2022/06/08 03:22:04;;;;;;;6.07;1.95;;;;;;;16.56;44.47;99213.28;5072478;28;20053;-71
2022/06/08 03:24:32;;;;;;;7.82;1.70;;;;;;;16.58;44.35;99216.53;5072258;28;20045;-70
2022/06/08 03:27:08;;;;;;;5.03;2.30;;;;;;;16.59;44.17;99212.53;5072460;28;20094;-70
2022/06/08 03:29:35;;;;;;;4.72;1.90;;;;;;;16.60;43.86;99216.94;5072033;28;20058;-70
2022/06/08 03:32:03;;;;;;;8.70;2.38;;;;;;;16.64;43.69;99215.00;5072610;28;20135;-74
2022/06/08 03:34:30;;;;;;;4.38;2.38;;;;;;;16.68;43.55;99221.47;5072319;28;20072;-70
2022/06/08 03:36:57;;;;;;;8.65;2.30;;;;;;;16.74;43.75;99217.16;5055315;28;20102;-70
2022/06/08 03:39:24;;;;;;;9.70;1.95;;;;;;;16.89;43.35;99219.75;5072270;28;20117;-70
2022/06/08 03:41:51;;;;;;;12.40;2.33;;;;;;;17.12;42.70;99226.09;5066344;28;20049;-70
2022/06/08 03:44:19;;;;;;;5.32;1.85;;;;;;;17.38;42.35;99227.97;5055904;28;20045;-70
2022/06/08 03:46:54;;;;;;;7.05;1.88;;;;;;;17.58;42.10;99227.41;5037927;28;20045;-74
2022/06/08 03:49:25;;;;;;;8.63;2.50;;;;;;;17.70;41.96;99226.31;5037702;28;20053;-70
2022/06/08 03:51:56;;;;;;;7.70;2.20;;;;;;;17.85;41.73;99225.25;5056394;28;20065;-71
2022/06/08 03:54:27;;;;;;;5.85;2.00;;;;;;;17.84;41.76;99235.72;5055704;28;20045;-74
2022/06/08 03:56:58;;;;;;;3.90;1.98;;;;;;;17.90;41.28;99228.53;5037792;28;20059;-73
2022/06/08 03:59:26;;;;;;;7.32;2.22;;;;;;;17.89;41.27;99226.09;5055777;28;20522;-74
2022/06/08 04:01:53;;;;;;;10.90;2.45;;;;;;;17.94;40.95;99234.97;5056110;28;20061;-71
2022/06/08 04:04:20;;;;;;;10.43;2.53;;;;;;;18.02;40.79;99235.84;5055514;28;20135;-74
2022/06/08 04:06:49;;;;;;;6.55;2.35;;;;;;;18.09;40.71;99225.47;5055757;28;20479;-70
2022/06/08 04:09:17;;;;;;;13.60;2.33;;;;;;;18.19;40.43;99238.00;5065856;28;20140;-73
2022/06/08 04:11:43;;;;;;;4.95;2.20;;;;;;;18.28;40.24;99230.03;5075701;28;20140;-71
2022/06/08 04:14:10;;;;;;;7.93;2.47;;;;;;;18.45;40.13;99229.38;5075779;28;20052;-71
2022/06/08 04:16:38;;;;;;;15.73;2.30;;;;;;;18.60;39.93;99233.91;5075551;28;20087;-71
2022/06/08 04:19:05;;;;;;;4.75;1.80;;;;;;;18.71;39.39;99229.13;5075459;28;20185;-70
2022/06/08 04:21:32;;;;;;;4.30;1.70;;;;;;;18.78;39.19;99234.81;5057305;28;20113;-70
2022/06/08 04:24:00;;;;;;;6.28;2.40;;;;;;;18.88;38.68;99242.50;5075398;28;20068;-72
2022/06/08 04:26:28;;;;;;;8.93;2.20;;;;;;;18.95;38.88;99234.06;5075623;28;20050;-71
2022/06/08 04:28:55;;;;;;;12.57;2.15;;;;;;;19.07;38.77;99236.56;5075319;28;20047;-70
2022/06/08 04:31:22;;;;;;;9.10;2.20;;;;;;;19.27;38.36;99237.09;5075128;28;20143;-71
2022/06/08 04:33:50;;;;;;;11.15;2.20;;;;;;;19.41;38.22;99228.66;5057761;28;20056;-72
2022/06/08 04:36:18;;;;;;;7.07;1.85;;;;;;;19.51;37.90;99231.50;5058459;28;20484;-71
2022/06/08 04:38:45;;;;;;;5.68;2.45;;;;;;;19.73;37.45;99226.72;5075445;28;20093;-71
2022/06/08 04:41:12;;;;;;;6.43;2.00;;;;;;;19.83;37.25;99215.44;5074512;28;20498;-71
2022/06/08 04:43:41;;;;;;;6.95;2.80;;;;;;;19.95;37.20;99220.69;5074721;28;20045;-72
2022/06/08 04:46:15;;;;;;;;;;;;;;;20.04;36.90;99228.75;5075687;28;20136;-76
2022/06/08 04:48:43;;;;;;;9.60;1.80;;;;;;;20.17;36.22;99229.19;5074840;28;19924;-73
2022/06/08 04:51:12;;;;;;;5.05;2.67;;;;;;;20.39;35.55;99222.28;5074880;28;20128;-72
2022/06/08 04:53:41;;;;;;;5.18;2.08;;;;;;;20.48;35.14;99215.00;5074629;28;20048;-71
2022/06/08 04:56:09;;;;;;;6.00;2.50;;;;;;;20.58;35.12;99213.41;5057524;28;20059;-76
2022/06/08 04:58:36;;;;;;;8.05;2.72;;;;;;;20.72;35.07;99213.38;5074643;28;20466;-70
2022/06/08 05:01:05;;;;;;;17.17;2.92;;;;;;;20.77;34.90;99212.94;5074648;28;20093;-70
2022/06/08 05:03:32;;;;;;;12.80;2.45;;;;;;;20.96;34.51;99213.28;5056667;28;20093;-70
2022/06/08 05:06:00;;;;;;;7.38;2.20;;;;;;;21.38;33.38;99215.13;5074677;28;20048;-69
2022/06/08 05:08:27;;;;;;;5.35;2.05;;;;;;;21.52;32.76;99212.22;5057228;28;20048;-70
2022/06/08 05:10:56;;;;;;;10.23;2.33;;;;;;;21.49;32.65;99210.19;5074737;28;20048;-69
2022/06/08 05:13:23;;;;;;;8.60;1.95;;;;;;;21.50;32.60;99209.00;5074046;28;20147;-76
2022/06/08 05:15:51;;;;;;;3.88;2.10;;;;;;;21.70;32.05;99201.56;5074449;28;20062;-72
2022/06/08 05:18:20;;;;;;;8.80;1.80;;;;;;;21.94;31.31;99206.31;5074392;28;20482;-71
2022/06/08 05:20:48;;;;;;;4.80;2.05;;;;;;;22.10;30.76;99215.06;5074495;28;20052;-75
2022/06/08 05:23:19;;;;;;;2.95;1.48;;;;;;;22.12;30.30;99217.47;5056019;28;20582;-70
2022/06/08 05:25:46;;;;;;;6.03;2.33;;;;;;;22.33;29.70;99217.31;5074243;28;20044;-73
2022/06/08 05:28:13;;;;;;;5.68;1.80;;;;;;;22.67;28.95;99219.00;5073796;28;20052;-70
2022/06/08 05:30:43;;;;;;;5.88;1.58;;;;;;;22.90;28.27;99216.31;5073931;28;20127;-73
2022/06/08 05:33:11;;;;;;;9.18;1.63;;;;;;;23.04;28.03;99218.97;5073996;28;20055;-71
2022/06/08 05:35:39;;;;;;;3.35;1.55;;;;;;;23.13;27.55;99222.13;5074534;28;20499;-75
2022/06/08 05:38:07;;;;;;;4.65;1.70;;;;;;;23.42;27.36;99222.59;5074193;28;20052;-76
2022/06/08 05:40:37;;;;;;;10.10;1.73;;;;;;;23.58;27.05;99224.78;5073573;28;20052;-70
2022/06/08 05:43:10;;;;;;;7.82;1.63;;;;;;;23.85;26.68;99231.28;5073508;28;20048;-71
2022/06/08 05:45:39;;;;;;;6.03;1.30;;;;;;;24.00;26.46;99236.38;5073419;28;20130;-71
2022/06/08 05:48:07;;;;;;;8.32;1.52;;;;;;;24.19;26.28;99221.44;5073781;28;20131;-71
2022/06/08 05:50:37;;;;;;;6.97;1.85;;;;;;;24.33;26.11;99223.22;5073281;28;20044;-71
2022/06/08 05:53:05;;;;;;;4.95;1.83;;;;;;;24.44;25.78;99227.50;5073381;28;20139;-71
2022/06/08 05:55:32;;;;;;;3.50;1.52;;;;;;;24.70;25.53;99223.00;5073218;28;20051;-72
2022/06/08 05:58:00;;;;;;;5.05;2.42;;;;;;;24.77;25.26;99231.41;5073023;28;20091;-72
2022/06/08 06:00:30;;;;;;;3.88;1.95;;;;;;;25.11;24.97;99231.97;5073210;28;20087;-71
2022/06/08 06:02:59;;;;;;;6.15;2.45;;;;;;;25.38;24.54;99229.78;5073140;28;20052;-74
2022/06/08 06:05:32;;;;;;;8.82;1.85;;;;;;;25.75;24.31;99232.19;5072113;28;20060;-75
2022/06/08 06:08:00;;;;;;;4.80;1.67;;;;;;;26.45;23.13;99224.81;5073502;28;20059;-71
2022/06/08 06:10:29;;;;;;;4.93;1.52;;;;;;;28.19;21.68;99225.06;5073106;28;20072;-71
2022/06/08 06:12:56;;;;;;;10.10;2.05;;;;;;;31.66;17.87;99234.13;5073272;28;20068;-71
2022/06/08 06:15:24;;;;;;;79.28;32.20;;;;;;;35.27;15.19;99232.09;5072899;28;20047;-72
2022/06/08 06:17:51;;;;;;;7.45;2.03;;;;;;;34.87;14.79;99227.94;5073495;28;20052;-77
2022/06/08 06:20:19;;;;;;;3.75;1.88;;;;;;;32.57;16.22;99231.72;5054575;28;20055;-73
2022/06/08 06:22:47;;;;;;;10.10;2.28;;;;;;;31.20;17.21;99231.75;5073460;28;20140;-70
2022/06/08 06:25:14;;;;;;;5.10;2.05;;;;;;;30.20;18.28;99244.28;5073078;28;20041;-71
2022/06/08 06:27:42;;;;;;;3.72;1.60;;;;;;;28.52;19.58;99235.00;5073101;28;20048;-74
2022/06/08 06:30:10;;;;;;;7.18;2.97;;;;;;;27.53;20.81;99239.41;5072833;28;20539;-70
2022/06/08 06:32:38;;;;;;;7.47;1.47;;;;;;;26.80;21.23;99241.00;5073153;28;20072;-70
2022/06/08 06:35:11;;;;;;;8.43;1.20;;;;;;;26.45;21.67;99247.66;5072598;28;20567;-75
2022/06/08 06:37:38;;;;;;;6.22;2.05;;;;;;;26.27;21.41;99250.13;5072935;28;20054;-75
2022/06/08 06:40:07;;;;;;;3.65;1.80;;;;;;;26.53;21.03;99243.34;5072622;28;20083;-69
2022/06/08 06:42:34;;;;;;;16.83;6.37;;;;;;;26.64;21.02;99243.91;5061271;28;20083;-73
2022/06/08 06:45:02;;;;;;;6.23;1.90;;;;;;;27.73;20.14;99239.97;5034533;28;20550;-71
2022/06/08 06:47:29;;;;;;;3.80;1.38;;;;;;;28.56;18.92;99247.13;5034677;28;20052;-74
2022/06/08 06:49:56;;;;;;;6.22;1.60;;;;;;;29.86;17.86;99246.00;5051222;28;20551;-71
2022/06/08 06:52:24;;;;;;;2.97;1.25;;;;;;;32.24;16.69;99247.38;5052697;28;20147;-75
2022/06/08 06:54:51;;;;;;;4.88;1.60;;;;;;;37.04;13.08;99249.00;5052486;28;20140;-74
2022/06/08 06:57:18;;;;;;;4.40;1.45;;;;;;;40.94;10.64;99243.47;5052688;28;20052;-73
2022/06/08 06:59:45;;;;;;;7.10;1.58;;;;;;;43.76;8.94;99244.59;5052462;28;20132;-74
2022/06/08 07:02:15;;;;;;;8.73;2.10;;;;;;;45.58;7.75;99243.50;5052854;28;20453;-75
2022/06/08 07:04:43;;;;;;;3.85;1.67;;;;;;;46.93;6.79;99254.81;5052035;28;20166;-71
2022/06/08 07:07:10;;;;;;;5.43;1.52;;;;;;;47.90;5.88;99247.06;5052458;28;20419;-70
2022/06/08 07:09:37;;;;;;;;;;;;;;;47.77;6.47;99247.34;5058038;28;20044;-70
2022/06/08 07:12:06;;;;;;;3.90;2.25;;;;;;;48.93;5.73;99248.34;5073066;28;19931;-74
2022/06/08 07:14:33;;;;;;;3.00;1.80;;;;;;;49.85;5.20;99249.72;5072324;28;20135;-75
2022/06/08 07:17:00;;;;;;;;;;;;;;;50.31;5.30;99257.34;5075307;28;20202;-73
2022/06/08 07:19:27;;;;;;;4.65;1.52;;;;;;;51.34;4.63;99250.91;5076264;28;20409;-70
2022/06/08 07:21:55;;;;;;;4.43;1.55;;;;;;;52.18;4.33;99261.19;5076816;28;20049;-75
2022/06/08 07:24:31;;;;;;;3.75;1.42;;;;;;;53.24;3.93;99249.63;5076353;28;20128;-71
2022/06/08 07:26:59;;;;;;;49.00;24.88;;;;;;;54.07;3.25;99253.97;5076456;28;20051;-71
2022/06/08 07:29:26;;;;;;;5.10;2.20;;;;;;;55.03;2.86;99254.38;5076285;28;20056;-72
2022/06/08 07:31:53;;;;;;;;;;;;;;;54.56;3.73;99252.00;5076773;28;20063;-75
2022/06/08 07:34:20;;;;;;;3.35;1.58;;;;;;;54.47;3.24;99253.69;5058034;28;19924;-76
2022/06/08 07:36:47;;;;;;;5.82;1.45;;;;;;;55.01;2.52;99257.22;5076528;28;20135;-71
2022/06/08 07:39:15;;;;;;;4.28;1.48;;;;;;;55.42;2.35;99249.41;5075799;28;20047;-71
2022/06/08 07:41:44;;;;;;;3.15;1.45;;;;;;;55.58;1.86;99262.31;5075446;28;20499;-71
2022/06/08 07:44:11;;;;;;;3.80;1.80;;;;;;;55.39;2.13;99253.66;5076535;28;20143;-68
2022/06/08 07:46:38;;;;;;;8.50;1.52;;;;;;;55.73;2.22;99255.03;5076299;28;20499;-68
2022/06/08 07:51:53;;;;;;;7.28;1.50;;;;;;;55.75;2.06;99240.19;5076222;28;20056;-70
2022/06/08 07:54:25;;;;;;;5.28;1.80;;;;;;;55.79;1.86;99257.59;5075664;28;20132;-72
2022/06/08 07:56:53;;;;;;;5.15;2.00;;;;;;;56.05;1.82;99250.22;5075673;28;20452;-68
2022/06/08 07:59:22;;;;;;;4.10;1.83;;;;;;;55.92;1.90;99248.69;5075944;28;20052;-70
2022/06/08 08:01:50;;;;;;;3.85;2.22;;;;;;;55.98;1.64;99245.28;5057603;28;20048;-72
2022/06/08 08:04:16;;;;;;;3.20;1.90;;;;;;;54.75;2.27;99246.56;5075547;28;20126;-69
2022/06/08 08:06:44;;;;;;;2.72;1.80;;;;;;;55.02;2.21;99240.09;5075480;28;20048;-72
2022/06/08 08:09:18;;;;;;;4.47;2.20;;;;;;;56.11;1.44;99239.38;5075385;28;20064;-68
2022/06/08 08:11:47;;;;;;;2.95;1.73;;;;;;;55.91;2.09;99231.44;5075879;28;20056;-71
2022/06/08 08:14:14;;;;;;;2.55;1.77;;;;;;;56.29;1.61;99239.66;5075442;28;20559;-72
2022/06/08 08:16:42;;;;;;;2.85;1.63;;;;;;;57.10;1.03;99242.81;5075204;28;20048;-68
2022/06/08 08:19:17;;;;;;;2.95;1.70;;;;;;;57.52;1.47;99254.09;5075186;28;20053;-72
2022/06/08 08:21:45;;;;;;;2.67;1.80;;;;;;;57.67;0.61;99244.41;5075025;28;20052;-71
2022/06/08 08:24:12;;;;;;;3.42;1.80;;;;;;;57.71;1.38;99244.59;5075443;28;20044;-68
2022/06/08 08:26:40;;;;;;;4.28;2.00;;;;;;;57.95;1.16;99233.91;5075061;28;20057;-72
2022/06/08 08:29:07;;;;;;;2.72;1.80;;;;;;;57.64;0.72;99233.75;5074301;28;20507;-68
2022/06/08 08:31:34;;;;;;;7.53;1.77;;;;;;;58.05;1.38;99231.41;5075476;28;20127;-70
2022/06/08 08:34:01;;;;;;;11.93;6.18;;;;;;;58.51;0.95;99230.72;5075151;28;20061;-68
2022/06/08 08:36:28;;;;;;;3.55;2.10;;;;;;;58.02;0.60;99232.75;5075241;28;20170;-71
2022/06/08 08:38:55;;;;;;;4.45;2.30;;;;;;;57.02;0.95;99227.41;5075044;28;20083;-69
2022/06/08 08:44:36;;;;;;;2.95;1.70;;;;;;;56.57;1.24;99223.34;5054884;28;20534;-72
2022/06/08 08:47:23;;;;;;;5.85;1.80;;;;;;;55.81;1.00;99219.66;5054702;28;20055;-69
2022/06/08 08:49:53;;;;;;;3.75;1.90;;;;;;;55.27;1.02;99220.09;5055044;28;20056;-71
2022/06/08 08:52:32;;;;;;;3.83;2.08;;;;;;;54.80;1.70;99224.53;5054806;28;20060;-70
2022/06/08 08:55:05;;;;;;;9.35;1.83;;;;;;;55.69;1.04;99218.16;5054664;28;20097;-69
2022/06/08 08:57:35;;;;;;;4.95;1.70;;;;;;;56.42;0.87;99218.81;5054697;28;20080;-72
2022/06/08 09:00:17;;;;;;;7.43;2.25;;;;;;;57.17;0.87;99220.72;5054576;28;20504;-68
2022/06/08 09:05:32;;;;;;;2.97;2.05;;;;;;;57.94;0.74;99205.38;5036261;28;20056;-71
2022/06/08 09:07:59;;;;;;;6.28;2.10;;;;;;;58.40;1.04;99207.72;5054730;28;20139;-69
2022/06/08 09:10:26;;;;;;;5.47;2.25;;;;;;;58.44;0.34;99213.91;5046203;28;20048;-71
2022/06/08 09:12:54;;;;;;;2.60;1.98;;;;;;;58.16;0.95;99206.50;5074462;28;20543;-68
2022/06/08 09:15:44;;;;;;;2.63;2.28;;;;;;;59.16;0.46;99216.56;5074050;28;20143;-72
2022/06/08 09:18:36;;;;;;;5.95;2.30;;;;;;;59.27;0.47;99220.81;5073833;28;20044;-71
2022/06/08 09:21:21;;;;;;;3.28;2.35;;;;;;;59.12;1.03;99215.59;5074341;28;20058;-72
2022/06/08 09:23:51;;;;;;;2.50;2.30;;;;;;;59.53;0.65;99218.94;5074511;28;20218;-69
2022/06/08 09:26:24;;;;;;;3.65;2.30;;;;;;;59.80;0.00;99215.63;5074079;28;20076;-69
2022/06/08 09:29:18;;;;;;;5.65;3.50;;;;;;;60.02;0.00;99204.59;5074004;28;20052;-70
2022/06/08 09:31:45;;;;;;;3.80;2.30;;;;;;;59.03;0.70;99210.66;5074003;28;20130;-73
2022/06/08 09:34:23;;;;;;;5.20;1.70;;;;;;;56.87;0.48;99204.91;5074000;28;20076;-71
2022/06/08 09:37:09;;;;;;;2.53;1.35;;;;;;;49.72;3.11;99187.97;5073762;28;20407;-70
2022/06/08 09:39:36;;;;;;;4.43;1.30;;;;;;;44.29;4.95;99188.16;5072705;28;20055;-71
2022/06/08 09:42:22;;;;;;;2.20;1.30;;;;;;;41.03;6.55;99181.78;5065364;28;20056;-67
2022/06/08 09:45:02;;;;;;;2.72;1.13;;;;;;;38.38;8.51;99189.38;5053701;28;20098;-67
2022/06/08 09:51:27;;;;;;;3.42;1.30;;;;;;;34.31;10.98;99178.47;5030747;28;20151;-71
2022/06/08 09:54:06;;;;;;;3.63;1.60;;;;;;;33.04;11.91;99179.84;5053536;28;20041;-69
2022/06/08 09:57:02;;;;;;;3.10;1.27;;;;;;;32.21;12.54;99185.81;5053571;28;20408;-71
2022/06/08 10:00:00;;;;;;;4.53;1.40;;;;;;;31.00;13.89;99185.44;5053511;28;20534;-71
2022/06/08 10:02:38;;;;;;;3.72;1.52;;;;;;;30.29;15.01;99186.91;5053429;28;20416;-70
2022/06/08 10:05:26;;;;;;;2.20;1.20;;;;;;;29.52;14.89;99193.69;5052982;28;20049;-71
2022/06/08 10:08:19;;;;;;;4.70;1.35;;;;;;;28.92;15.15;99181.59;5056027;28;20139;-72
2022/06/08 10:11:03;;;;;;;1.60;1.02;;;;;;;28.46;16.00;99182.47;5073407;28;20044;-66
2022/06/08 10:13:37;;;;;;;3.92;1.05;;;;;;;28.25;15.94;99186.84;5073234;28;20143;-66
2022/06/08 10:16:28;;;;;;;1.63;1.00;;;;;;;27.78;16.37;99185.91;5073310;28;20508;-70
2022/06/08 10:19:01;;;;;;;4.18;2.15;;;;;;;27.70;16.17;99180.84;5072833;28;20063;-68
2022/06/08 10:21:33;;;;;;;3.38;1.00;;;;;;;27.65;16.53;99175.72;5073253;28;20051;-66
2022/06/08 10:24:05;;;;;;;4.70;1.50;;;;;;;27.59;16.90;99172.63;5073034;28;20059;-67
2022/06/08 10:26:36;;;;;;;1.98;1.08;;;;;;;27.49;16.99;99167.25;5072638;28;20055;-67
2022/06/08 10:29:12;;;;;;;3.67;1.05;;;;;;;27.28;17.33;99173.59;5072556;28;20047;-68
2022/06/08 10:32:00;;;;;;;5.05;1.10;;;;;;;27.14;17.48;99163.38;5072886;28;20036;-70
2022/06/08 10:34:33;;;;;;;5.75;1.17;;;;;;;26.87;17.67;99167.84;5072649;28;20515;-68
2022/06/08 10:37:24;;;;;;;3.90;1.20;;;;;;;26.67;17.84;99165.94;5072638;28;20052;-72
2022/06/08 10:39:51;;;;;;;7.18;1.27;;;;;;;26.60;17.96;99166.13;5072544;28;20506;-69
2022/06/08 10:42:39;;;;;;;1.63;1.00;;;;;;;26.51;17.91;99165.97;5072729;28;20511;-72
2022/06/08 10:45:26;;;;;;;8.77;1.30;;;;;;;26.42;17.80;99162.13;5072404;28;20547;-71
2022/06/08 10:48:22;;;;;;;2.63;0.95;;;;;;;26.37;18.35;99169.19;5055194;28;20048;-68
2022/06/08 10:51:09;;;;;;;1.98;1.00;;;;;;;26.22;18.36;99155.75;5072450;28;20049;-68
2022/06/08 10:56:52;;;;;;;4.55;1.10;;;;;;;26.08;18.73;99159.75;5072621;28;20044;-67
2022/06/08 10:59:24;;;;;;;2.55;1.52;;;;;;;26.03;18.87;99157.47;5072659;28;20511;-67
2022/06/08 11:01:55;;;;;;;6.90;3.10;;;;;;;26.03;18.77;99163.16;5072311;28;20049;-72
2022/06/08 11:04:32;;;;;;;3.53;1.60;;;;;;;25.92;18.33;99150.38;5072154;28;20064;-67
2022/06/08 11:07:07;;;;;;;2.38;1.17;;;;;;;25.82;18.19;99149.41;5073400;28;20479;-69
2022/06/08 11:09:34;;;;;;;2.88;1.10;;;;;;;25.72;18.01;99147.59;5072545;28;20052;-68
2022/06/08 11:12:04;;;;;;;3.78;1.20;;;;;;;25.76;18.20;99153.22;5072642;28;20040;-68
2022/06/08 11:14:51;;;;;;;5.18;1.15;;;;;;;25.83;18.10;99145.31;5072222;28;20067;-73
2022/06/08 11:17:33;;;;;;;8.02;1.17;;;;;;;25.85;18.61;99142.81;5072716;28;20091;-68
2022/06/08 11:20:11;;;;;;;3.17;1.25;;;;;;;25.78;18.59;99145.81;5072324;28;20134;-73
2022/06/08 11:22:43;;;;;;;3.30;1.27;;;;;;;25.66;18.86;99143.69;5072520;28;20442;-69
2022/06/08 11:25:17;;;;;;;3.28;1.20;;;;;;;25.62;19.49;99154.38;5072293;28;20118;-70
2022/06/08 11:27:44;;;;;;;4.80;1.23;;;;;;;25.57;19.67;99163.44;5072390;28;20079;-67
2022/06/08 11:30:23;;;;;;;2.42;1.20;;;;;;;25.68;19.31;99157.47;5071998;28;20063;-72
2022/06/08 11:32:50;;;;;;;;;;;;;;;25.61;18.99;99147.03;5072790;28;20462;-67
2022/06/08 11:35:25;;;;;;;3.17;1.63;;;;;;;25.61;19.15;99147.03;5071871;28;19931;-71
2022/06/08 11:38:08;;;;;;;4.70;1.27;;;;;;;25.68;19.78;99141.19;5072316;28;20048;-70
2022/06/08 11:40:36;;;;;;;2.38;1.55;;;;;;;25.74;20.16;99147.16;5072152;28;20139;-68
2022/06/08 11:43:09;;;;;;;3.72;1.13;;;;;;;25.79;20.10;99147.44;5072227;28;20045;-71
2022/06/08 11:46:19;;;;;;;2.58;1.38;;;;;;;25.90;19.96;99141.47;5072076;28;20517;-68
2022/06/08 11:48:48;;;;;;;2.90;1.10;;;;;;;25.94;19.96;99154.41;5027986;28;20147;-69
2022/06/08 11:51:32;;;;;;;1.60;1.10;;;;;;;25.88;19.65;99144.78;5071661;28;20063;-70
2022/06/08 11:54:03;;;;;;;11.20;1.42;;;;;;;25.81;19.85;99139.22;5071633;28;20056;-69
2022/06/08 11:56:42;;;;;;;10.77;1.38;;;;;;;25.91;20.01;99148.78;5054202;28;20084;-69
2022/06/08 11:59:28;;;;;;;2.47;1.40;;;;;;;25.93;19.71;99147.06;5061575;28;20061;-70
2022/06/08 12:02:01;;;;;;;3.00;1.10;;;;;;;25.91;19.83;99135.34;5071445;28;20131;-70
2022/06/08 12:04:31;;;;;;;4.65;1.20;;;;;;;25.93;20.31;99135.69;5067289;28;20110;-70
2022/06/08 12:06:58;;;;;;;;;;;;;;;25.79;21.37;99140.94;5071296;28;20039;-69
2022/06/08 12:09:31;;;;;;;3.33;1.00;;;;;;;25.85;20.73;99133.47;5072756;28;19946;-71
2022/06/08 12:12:10;;;;;;;7.97;1.20;;;;;;;25.84;20.45;99132.66;5070293;28;20044;-70
2022/06/08 12:14:40;;;;;;;4.35;1.60;;;;;;;25.74;20.63;99130.06;5073404;28;20041;-68
2022/06/08 12:17:14;;;;;;;28.08;11.23;;;;;;;25.74;20.44;99133.72;5066187;28;20599;-74
2022/06/08 12:19:56;;;;;;;7.72;2.00;;;;;;;25.67;20.59;99131.06;5073986;28;20060;-73
2022/06/08 12:22:27;;;;;;;6.28;1.83;;;;;;;25.74;20.55;99127.22;5065104;28;20064;-73